Terminal Aerodrome Forecast
Issued by NWS

Home | Current Version | Previous Version | Text Only | Print | Product List | Glossary On
Versions: 1 2 3 4 5 6 7 8 9 10 11 12 13 14 15 16 17 18 19 20 21
000
FTUS43 KGRR 301100
TAFJXN
TAF
KJXN 301132Z 3012/3112 VRB03KT 4SM BR BKN080
     FM301400 30007KT P6SM VCSH BKN050
     FM310200 27004KT P6SM BKN050=

USA.gov is the U.S. government's official web portal to all federal, state and local government web resources and services.